createdAt,value
2023-02-12T00:00:18.723Z,33.30
2023-02-12T00:02:46.318Z,29.17
2023-02-12T00:05:16.959Z,31.52
2023-02-12T00:07:44.572Z,29.50
2023-02-12T00:10:14.182Z,31.58
2023-02-12T00:12:41.760Z,33.92
2023-02-12T00:15:10.284Z,29.27
2023-02-12T00:17:38.004Z,30.05
2023-02-12T00:20:07.098Z,31.00
2023-02-12T00:22:36.141Z,30.92
2023-02-12T00:25:03.940Z,32.38
2023-02-12T00:27:33.907Z,29.58
2023-02-12T00:30:01.530Z,31.67
2023-02-12T00:32:29.227Z,30.30
2023-02-12T00:34:57.573Z,32.00
2023-02-12T00:37:25.351Z,31.67
2023-02-12T00:39:56.633Z,29.00
2023-02-12T00:42:24.280Z,30.00
2023-02-12T00:44:52.491Z,29.33
2023-02-12T00:47:20.084Z,29.20
2023-02-12T00:49:51.285Z,31.02
2023-02-12T00:52:21.182Z,29.52
2023-02-12T00:54:51.007Z,34.38
2023-02-12T00:57:20.451Z,29.42
2023-02-12T00:59:50.483Z,33.97
2023-02-12T01:02:18.917Z,33.38
2023-02-12T01:04:47.651Z,29.05
2023-02-12T01:07:16.492Z,29.80
2023-02-12T01:09:44.166Z,31.02
2023-02-12T01:12:12.513Z,33.50
2023-02-12T01:14:41.513Z,31.60
2023-02-12T01:17:09.215Z,31.20
2023-02-12T01:19:36.825Z,29.77
2023-02-12T01:22:05.579Z,30.63
2023-02-12T01:24:36.029Z,28.42
2023-02-12T01:27:03.729Z,30.85
2023-02-12T01:29:33.632Z,31.50
2023-02-12T01:32:03.562Z,31.65
2023-02-12T01:34:31.225Z,30.88
2023-02-12T01:36:59.018Z,29.63
2023-02-12T01:39:26.649Z,28.58
2023-02-12T01:41:54.303Z,30.63
2023-02-12T01:44:24.188Z,29.00
2023-02-12T01:46:56.729Z,30.20
2023-02-12T01:49:31.544Z,29.40
2023-02-12T01:52:03.872Z,31.50
2023-02-12T01:54:32.352Z,30.40
2023-02-12T01:57:01.559Z,28.52
2023-02-12T01:59:30.719Z,30.45
2023-02-12T02:01:59.011Z,30.00
2023-02-12T02:04:31.691Z,30.85
2023-02-12T02:07:03.002Z,28.15
2023-02-12T02:09:34.487Z,30.35
2023-02-12T02:14:55.679Z,29.17
2023-02-12T02:17:35.291Z,27.95
2023-02-12T02:20:51.570Z,29.05
2023-02-12T02:23:51.700Z,29.27
2023-02-12T02:26:46.496Z,28.67
2023-02-12T02:29:30.565Z,29.77
2023-02-12T02:32:07.616Z,30.80
2023-02-12T02:34:41.406Z,28.20
2023-02-12T02:37:19.326Z,28.48
2023-02-12T02:39:53.406Z,26.85
2023-02-12T02:42:29.615Z,27.30
2023-02-12T02:45:03.154Z,28.15
2023-02-12T02:47:39.503Z,28.35
2023-02-12T02:50:16.501Z,29.10
2023-02-12T02:52:51.183Z,29.02
2023-02-12T02:58:18.493Z,30.70
2023-02-12T03:00:52.880Z,30.85
2023-02-12T03:03:29.672Z,31.42
2023-02-12T03:06:03.687Z,28.10
2023-02-12T03:08:36.635Z,30.08
2023-02-12T03:11:09.569Z,29.50
2023-02-12T03:13:42.229Z,28.90
2023-02-12T03:16:16.462Z,27.42
2023-02-12T03:18:51.333Z,27.73
2023-02-12T03:21:23.443Z,26.92
2023-02-12T03:24:23.417Z,31.00
2023-02-12T03:26:57.579Z,29.33
2023-02-12T03:29:30.595Z,30.77
2023-02-12T03:32:39.171Z,28.33
2023-02-12T03:35:13.871Z,28.08
2023-02-12T03:37:46.664Z,25.92
2023-02-12T03:40:21.479Z,30.83
2023-02-12T03:42:58.851Z,29.05
2023-02-12T03:45:42.540Z,28.35
2023-02-12T03:48:15.337Z,27.35
2023-02-12T03:50:49.916Z,28.98
2023-02-12T03:53:19.482Z,30.50
2023-02-12T03:55:54.227Z,28.63
2023-02-12T03:58:27.557Z,27.75
2023-02-12T04:00:58.515Z,28.85
2023-02-12T04:03:27.336Z,28.77
2023-02-12T04:05:58.487Z,29.05
2023-02-12T04:11:06.387Z,28.65
2023-02-12T04:13:43.575Z,29.33
2023-02-12T04:16:20.930Z,28.27
2023-02-12T04:18:50.390Z,29.88
2023-02-12T04:21:38.091Z,31.25
2023-02-12T04:24:16.577Z,28.40
2023-02-12T04:26:53.670Z,28.65
2023-02-12T04:29:31.316Z,27.90
2023-02-12T04:32:07.812Z,27.80
2023-02-12T04:34:40.568Z,28.92
2023-02-12T04:37:17.641Z,28.95
2023-02-12T04:39:46.676Z,28.25
2023-02-12T04:42:14.378Z,27.58
2023-02-12T04:44:44.589Z,30.45
2023-02-12T04:47:13.602Z,32.38
2023-02-12T04:49:43.040Z,29.52
2023-02-12T04:52:12.076Z,29.98
2023-02-12T04:54:39.725Z,30.00
2023-02-12T04:57:07.321Z,29.27
2023-02-12T04:59:35.598Z,29.55
2023-02-12T05:02:03.372Z,29.52
2023-02-12T05:04:31.546Z,29.00
2023-02-12T05:06:59.102Z,29.27
2023-02-12T05:09:28.487Z,29.15
2023-02-12T05:11:56.504Z,31.17
2023-02-12T05:14:25.455Z,29.75
2023-02-12T05:16:53.108Z,30.95
2023-02-12T05:19:21.529Z,30.60
2023-02-12T05:21:50.986Z,28.65
2023-02-12T05:24:19.161Z,32.00
2023-02-12T05:26:49.422Z,29.90
2023-02-12T05:29:22.205Z,29.48
2023-02-12T05:31:50.677Z,28.92
2023-02-12T05:34:18.405Z,30.50
2023-02-12T05:36:46.570Z,30.17
2023-02-12T05:39:14.657Z,31.63
2023-02-12T05:41:43.915Z,29.50
2023-02-12T05:44:15.077Z,29.83
2023-02-12T05:46:47.662Z,29.30
2023-02-12T05:49:19.517Z,29.33
2023-02-12T05:51:47.986Z,29.75
2023-02-12T05:54:15.588Z,31.67
2023-02-12T05:56:45.642Z,29.70
2023-02-12T05:59:18.596Z,28.65
2023-02-12T06:01:48.247Z,31.15
2023-02-12T06:04:19.656Z,29.73
2023-02-12T06:06:47.836Z,28.27
2023-02-12T06:09:15.692Z,31.70
2023-02-12T06:11:43.990Z,32.50
2023-02-12T06:14:16.417Z,29.95
2023-02-12T06:16:46.621Z,30.15
2023-02-12T06:19:14.888Z,29.65
2023-02-12T06:21:43.107Z,32.08
2023-02-12T06:24:13.500Z,29.83
2023-02-12T06:26:46.501Z,30.33
2023-02-12T06:29:15.500Z,31.08
2023-02-12T06:31:44.678Z,30.23
2023-02-12T06:34:17.896Z,31.67
2023-02-12T06:36:48.203Z,28.50
2023-02-12T06:39:17.856Z,32.03
2023-02-12T06:41:45.538Z,29.95
2023-02-12T06:44:16.544Z,30.70
2023-02-12T06:46:44.232Z,31.90
2023-02-12T06:49:13.477Z,31.00
2023-02-12T06:51:41.485Z,31.70
2023-02-12T06:54:16.185Z,28.45
2023-02-12T06:56:44.628Z,32.22
2023-02-12T06:59:16.556Z,31.17
2023-02-12T07:01:44.525Z,31.70
2023-02-12T07:04:12.717Z,30.30
2023-02-12T07:06:42.562Z,30.35
2023-02-12T07:09:10.246Z,31.23
2023-02-12T07:11:38.783Z,33.08
2023-02-12T07:14:06.976Z,29.60
2023-02-12T07:16:36.656Z,31.13
2023-02-12T07:19:04.537Z,30.23
2023-02-12T07:21:57.872Z,31.42
2023-02-12T07:24:27.072Z,31.67
2023-02-12T07:26:56.565Z,33.40
2023-02-12T07:29:25.017Z,32.95
2023-02-12T07:31:54.498Z,31.48
2023-02-12T07:34:22.593Z,33.42
2023-02-12T07:36:50.518Z,30.77
2023-02-12T07:39:18.634Z,32.55
2023-02-12T07:41:46.255Z,33.15
2023-02-12T07:44:14.631Z,33.08
2023-02-12T07:46:46.279Z,31.85
2023-02-12T07:49:19.506Z,30.30
2023-02-12T07:51:51.933Z,35.40
2023-02-12T07:54:44.410Z,34.55
2023-02-12T07:57:12.624Z,34.58
2023-02-12T07:59:40.298Z,32.70
2023-02-12T08:02:09.611Z,32.63
2023-02-12T08:07:34.515Z,34.75
2023-02-12T08:10:02.118Z,36.50
2023-02-12T08:12:30.497Z,32.75
2023-02-12T08:14:58.626Z,36.67
2023-02-12T08:17:26.548Z,41.97
2023-02-12T08:19:55.592Z,35.53
2023-02-12T08:22:25.004Z,33.88
2023-02-12T08:24:52.613Z,36.50
2023-02-12T08:27:46.635Z,34.92
2023-02-12T08:30:18.358Z,36.63
2023-02-12T08:32:50.076Z,37.08
2023-02-12T08:35:19.432Z,35.30
2023-02-12T08:37:49.432Z,35.97
2023-02-12T08:40:18.615Z,34.35
2023-02-12T08:42:46.506Z,33.88
2023-02-12T08:45:14.072Z,34.97
2023-02-12T08:47:41.763Z,35.50
2023-02-12T08:50:10.603Z,35.47
2023-02-12T08:52:43.946Z,38.10
2023-02-12T08:55:11.712Z,37.65
2023-02-12T08:57:40.045Z,35.67
2023-02-12T09:00:09.598Z,35.35
2023-02-12T09:02:37.171Z,35.53
2023-02-12T09:05:05.502Z,33.58
2023-02-12T09:07:33.500Z,33.63
2023-02-12T09:10:02.510Z,34.78
2023-02-12T09:12:32.492Z,33.45
2023-02-12T09:15:01.028Z,32.55
2023-02-12T09:17:29.333Z,32.13
2023-02-12T09:19:57.588Z,32.90
2023-02-12T09:22:25.290Z,30.58
2023-02-12T09:24:54.830Z,30.80
2023-02-12T09:27:23.811Z,29.77
2023-02-12T09:29:52.125Z,29.20
2023-02-12T09:32:20.503Z,28.38
2023-02-12T09:34:49.517Z,29.55
2023-02-12T09:37:17.952Z,30.10
2023-02-12T09:42:35.500Z,27.15
2023-02-12T09:45:13.503Z,25.13
2023-02-12T09:47:47.914Z,26.33
2023-02-12T09:50:44.516Z,27.25
2023-02-12T09:53:17.598Z,26.70
2023-02-12T09:55:46.526Z,28.45
2023-02-12T09:58:19.591Z,26.27
2023-02-12T10:00:47.433Z,26.02
2023-02-12T10:03:18.310Z,23.83
2023-02-12T10:05:51.732Z,22.88
2023-02-12T10:08:38.589Z,22.70
2023-02-12T10:11:29.572Z,24.33
2023-02-12T10:14:16.602Z,24.23
2023-02-12T10:17:00.510Z,23.83
2023-02-12T10:22:17.407Z,23.52
2023-02-12T10:25:06.586Z,21.90
2023-02-12T10:27:40.858Z,22.10
2023-02-12T10:30:26.509Z,22.92
2023-02-12T10:33:02.575Z,21.75
2023-02-12T10:35:33.979Z,24.00
2023-02-12T10:38:08.724Z,20.58
2023-02-12T10:40:39.217Z,19.90
2023-02-12T10:43:14.514Z,20.42
2023-02-12T10:45:45.232Z,17.73
2023-02-12T10:48:20.743Z,19.17
2023-02-12T10:51:29.924Z,20.40
2023-02-12T10:53:58.517Z,18.95
2023-02-12T10:56:28.029Z,18.08
2023-02-12T10:58:59.276Z,18.35
2023-02-12T11:01:31.817Z,18.55
2023-02-12T11:04:00.931Z,19.30
2023-02-12T11:06:32.301Z,15.73
2023-02-12T11:09:00.801Z,17.95
2023-02-12T11:11:31.028Z,18.05
2023-02-12T11:17:26.537Z,13.25
2023-02-12T11:20:05.239Z,14.07
2023-02-12T11:22:35.527Z,12.30
2023-02-12T11:28:17.606Z,15.02
2023-02-12T11:30:54.605Z,13.40
2023-02-12T11:33:29.291Z,13.85
2023-02-12T11:36:01.060Z,12.68
2023-02-12T11:38:33.194Z,10.57
2023-02-12T11:41:07.759Z,12.68
2023-02-12T11:43:39.454Z,11.80
2023-02-12T11:46:09.222Z,12.15
2023-02-12T11:48:47.307Z,12.55
2023-02-12T11:51:45.475Z,11.77
2023-02-12T11:54:20.929Z,11.75
2023-02-12T11:56:49.040Z,10.98
2023-02-12T11:59:33.224Z,13.10
2023-02-12T12:02:06.522Z,14.27
2023-02-12T12:04:37.595Z,10.77
2023-02-12T12:07:16.524Z,10.35
2023-02-12T12:09:48.435Z,10.40
2023-02-12T12:12:22.684Z,11.23
2023-02-12T12:15:10.816Z,11.63
2023-02-12T12:18:04.155Z,14.02
2023-02-12T12:20:37.752Z,13.68
2023-02-12T12:23:11.855Z,13.45
2023-02-12T12:25:46.083Z,10.95
2023-02-12T12:28:31.640Z,10.15
2023-02-12T12:31:06.542Z,11.98
2023-02-12T12:33:44.107Z,9.38
2023-02-12T12:36:39.237Z,9.65
2023-02-12T12:39:19.608Z,9.32
2023-02-12T12:42:14.588Z,8.60
2023-02-12T12:45:02.596Z,10.20
2023-02-12T12:47:41.206Z,9.95
2023-02-12T12:50:28.609Z,9.68
2023-02-12T12:53:16.966Z,8.63
2023-02-12T12:56:08.526Z,9.50
2023-02-12T12:58:47.925Z,8.35
2023-02-12T13:01:47.352Z,13.60
2023-02-12T13:04:40.540Z,8.48
2023-02-12T13:07:19.743Z,11.30
2023-02-12T13:10:03.900Z,11.80
2023-02-12T13:12:46.610Z,9.15
2023-02-12T13:15:23.550Z,9.27
2023-02-12T13:18:02.618Z,9.02
2023-02-12T13:20:42.948Z,8.15
2023-02-12T13:23:16.245Z,7.40
2023-02-12T13:25:58.664Z,7.88
2023-02-12T13:28:35.753Z,6.93
2023-02-12T13:31:30.101Z,5.75
2023-02-12T13:33:59.539Z,7.25
2023-02-12T13:36:27.335Z,7.07
2023-02-12T13:38:59.620Z,8.73
2023-02-12T13:41:33.215Z,8.65
2023-02-12T13:44:13.167Z,8.57
2023-02-12T13:46:50.693Z,7.65
2023-02-12T13:49:27.161Z,9.32
2023-02-12T13:52:01.153Z,8.10
2023-02-12T13:54:41.740Z,9.57
2023-02-12T13:57:16.198Z,8.95
2023-02-12T13:59:51.047Z,9.48
2023-02-12T14:02:53.276Z,9.20
2023-02-12T14:05:34.597Z,8.60
2023-02-12T14:08:05.891Z,7.35
2023-02-12T14:10:37.269Z,9.18
2023-02-12T14:13:20.604Z,7.05
2023-02-12T14:15:51.711Z,7.63
2023-02-12T14:21:41.154Z,9.03
2023-02-12T14:24:51.492Z,9.05
2023-02-12T14:27:31.841Z,8.82
2023-02-12T14:30:26.738Z,9.40
2023-02-12T14:33:12.436Z,8.48
2023-02-12T14:35:42.583Z,7.22
2023-02-12T14:38:47.556Z,8.88
2023-02-12T14:41:37.314Z,6.95
2023-02-12T14:44:45.671Z,7.70
2023-02-12T14:47:30.852Z,7.32
2023-02-12T14:50:03.900Z,7.05
2023-02-12T14:52:40.620Z,8.00
2023-02-12T14:55:21.095Z,8.77
2023-02-12T14:57:51.270Z,6.90
2023-02-12T15:00:26.844Z,9.00
2023-02-12T15:02:59.811Z,7.15
2023-02-12T15:05:31.543Z,9.40
2023-02-12T15:08:03.475Z,7.82
2023-02-12T15:10:39.553Z,7.18
2023-02-12T15:13:16.962Z,9.20
2023-02-12T15:15:50.243Z,7.90
2023-02-12T15:18:26.436Z,7.82
2023-02-12T15:21:00.103Z,7.85
2023-02-12T15:23:34.592Z,7.80
2023-02-12T15:26:04.437Z,8.18
2023-02-12T15:31:10.276Z,9.30
2023-02-12T15:33:42.765Z,7.45
2023-02-12T15:36:17.005Z,7.32
2023-02-12T15:38:46.530Z,8.45
2023-02-12T15:41:27.344Z,8.45
2023-02-12T15:43:55.363Z,8.43
2023-02-12T15:46:24.028Z,10.70
2023-02-12T15:48:55.550Z,8.25
2023-02-12T15:51:31.255Z,8.05
2023-02-12T15:54:01.236Z,8.57
2023-02-12T15:56:29.520Z,8.93
2023-02-12T15:59:00.039Z,7.78
2023-02-12T16:01:31.017Z,7.53
2023-02-12T16:04:02.440Z,8.30
2023-02-12T16:06:34.167Z,8.10
2023-02-12T16:09:05.598Z,7.57
2023-02-12T16:11:35.106Z,7.43
2023-02-12T16:14:05.428Z,7.45
2023-02-12T16:16:45.567Z,7.57
2023-02-12T16:19:22.681Z,7.70
2023-02-12T16:22:19.592Z,7.05
2023-02-12T16:24:48.751Z,7.32
2023-02-12T16:27:20.798Z,8.38
2023-02-12T16:29:54.969Z,7.07
2023-02-12T16:32:35.074Z,8.23
2023-02-12T16:35:08.594Z,6.78
2023-02-12T16:37:45.986Z,8.85
2023-02-12T16:40:25.993Z,8.60
2023-02-12T16:42:59.388Z,10.82
2023-02-12T16:45:41.469Z,12.40
2023-02-12T16:50:49.700Z,8.60
2023-02-12T16:53:46.863Z,7.95
2023-02-12T16:56:18.550Z,7.75
2023-02-12T16:58:48.225Z,7.97
2023-02-12T17:01:22.263Z,7.47
2023-02-12T17:03:51.036Z,7.10
2023-02-12T17:06:28.604Z,5.95
2023-02-12T17:08:57.578Z,6.63
2023-02-12T17:11:26.592Z,6.57
2023-02-12T17:13:56.287Z,6.45
2023-02-12T17:16:30.917Z,7.03
2023-02-12T17:18:59.687Z,7.32
2023-02-12T17:21:30.675Z,8.07
2023-02-12T17:23:58.392Z,8.45
2023-02-12T17:26:26.427Z,6.35
2023-02-12T17:28:56.533Z,6.57
2023-02-12T17:31:26.630Z,7.45
2023-02-12T17:33:54.615Z,8.63
2023-02-12T17:36:24.126Z,6.13
2023-02-12T17:38:53.723Z,5.93
2023-02-12T17:41:22.062Z,6.38
2023-02-12T17:43:49.773Z,7.22
2023-02-12T17:46:20.225Z,7.97
2023-02-12T17:48:48.280Z,5.95
2023-02-12T17:51:16.532Z,6.22
2023-02-12T17:53:44.826Z,7.28
2023-02-12T17:56:16.378Z,6.85
2023-02-12T17:58:44.696Z,5.75
2023-02-12T18:01:15.364Z,8.25
2023-02-12T18:03:44.052Z,6.72
2023-02-12T18:06:14.184Z,6.00
2023-02-12T18:08:42.565Z,6.82
2023-02-12T18:11:11.987Z,7.18
2023-02-12T18:13:42.448Z,7.10
2023-02-12T18:16:11.605Z,7.90
2023-02-12T18:18:40.518Z,6.60
2023-02-12T18:21:09.491Z,5.32
2023-02-12T18:23:38.070Z,5.60
2023-02-12T18:26:07.107Z,5.78
2023-02-12T18:28:35.256Z,5.97
2023-02-12T18:31:05.689Z,6.30
2023-02-12T18:33:34.054Z,7.32
2023-02-12T18:36:03.548Z,6.43
2023-02-12T18:38:31.810Z,8.88
2023-02-12T18:41:00.665Z,9.27
2023-02-12T18:43:29.544Z,7.35
2023-02-12T18:45:57.181Z,7.68
2023-02-12T18:48:26.374Z,6.60
2023-02-12T18:50:55.471Z,6.97
2023-02-12T18:53:23.369Z,7.38
2023-02-12T18:55:51.749Z,6.65
2023-02-12T18:58:19.376Z,8.48
2023-02-12T19:00:47.046Z,6.68
2023-02-12T19:03:15.629Z,6.28
2023-02-12T19:05:44.559Z,7.65
2023-02-12T19:08:12.675Z,7.68
2023-02-12T19:10:40.488Z,7.18
2023-02-12T19:13:08.883Z,10.55
2023-02-12T19:15:39.515Z,8.23
2023-02-12T19:18:07.614Z,8.80
2023-02-12T19:20:35.468Z,8.85
2023-02-12T19:23:04.451Z,7.18
2023-02-12T19:25:32.116Z,6.72
2023-02-12T19:27:59.751Z,6.72
2023-02-12T19:30:27.387Z,7.82
2023-02-12T19:32:55.012Z,8.32
2023-02-12T19:35:24.535Z,7.70
2023-02-12T19:37:52.191Z,6.95
2023-02-12T19:40:21.538Z,8.20
2023-02-12T19:42:49.236Z,9.85
2023-02-12T19:45:17.052Z,10.93
2023-02-12T19:47:44.642Z,8.43
2023-02-12T19:50:12.352Z,8.75
2023-02-12T19:52:40.140Z,8.63
2023-02-12T19:55:08.595Z,8.70
2023-02-12T19:57:38.491Z,7.93
2023-02-12T20:00:07.541Z,8.48
2023-02-12T20:02:35.255Z,9.98
2023-02-12T20:05:03.157Z,8.52
2023-02-12T20:07:30.781Z,10.25
2023-02-12T20:09:58.366Z,9.88
2023-02-12T20:12:26.098Z,11.38
2023-02-12T20:14:56.456Z,11.48
2023-02-12T20:17:24.943Z,10.80
2023-02-12T20:19:52.562Z,12.52
2023-02-12T20:22:22.185Z,12.80
2023-02-12T20:24:51.334Z,14.57
2023-02-12T20:27:22.543Z,18.13
2023-02-12T20:29:50.570Z,15.50
2023-02-12T20:32:19.581Z,13.73
2023-02-12T20:34:51.181Z,16.42
2023-02-12T20:37:19.198Z,16.48
2023-02-12T20:39:48.007Z,15.50
2023-02-12T20:42:15.624Z,15.68
2023-02-12T20:44:43.275Z,17.23
2023-02-12T20:47:10.914Z,17.52
2023-02-12T20:49:39.870Z,16.10
2023-02-12T20:52:07.921Z,15.43
2023-02-12T20:54:37.880Z,14.02
2023-02-12T20:57:08.600Z,16.52
2023-02-12T20:59:36.563Z,14.93
2023-02-12T21:02:04.481Z,13.68
2023-02-12T21:04:32.343Z,16.02
2023-02-12T21:07:01.511Z,16.25
2023-02-12T21:09:29.302Z,13.55
2023-02-12T21:11:58.986Z,13.55
2023-02-12T21:14:27.690Z,13.30
2023-02-12T21:16:56.609Z,15.43
2023-02-12T21:19:26.456Z,17.77
2023-02-12T21:21:55.316Z,15.55
2023-02-12T21:24:26.180Z,16.50
2023-02-12T21:26:55.576Z,16.30
2023-02-12T21:29:25.967Z,16.05
2023-02-12T21:31:55.716Z,17.17
2023-02-12T21:34:24.547Z,16.08
2023-02-12T21:36:55.078Z,16.55
2023-02-12T21:39:27.008Z,15.80
2023-02-12T21:41:56.695Z,16.33
2023-02-12T21:44:26.618Z,13.73
2023-02-12T21:46:56.537Z,14.07
2023-02-12T21:49:27.530Z,14.05
2023-02-12T21:51:57.839Z,14.60
2023-02-12T21:54:27.279Z,13.75
2023-02-12T21:56:55.465Z,15.13
2023-02-12T21:59:24.619Z,15.88
2023-02-12T22:01:53.930Z,13.65
2023-02-12T22:04:21.869Z,13.93
2023-02-12T22:06:52.468Z,14.95
2023-02-12T22:09:22.355Z,13.73
2023-02-12T22:11:52.872Z,14.18
2023-02-12T22:14:21.757Z,13.80
2023-02-12T22:16:49.738Z,14.77
2023-02-12T22:19:17.396Z,15.35
2023-02-12T22:21:46.016Z,17.33
2023-02-12T22:24:15.767Z,13.35
2023-02-12T22:26:45.723Z,14.55
2023-02-12T22:29:16.583Z,14.30
2023-02-12T22:31:47.414Z,15.50
2023-02-12T22:34:18.524Z,15.40
2023-02-12T22:36:47.005Z,14.15
2023-02-12T22:39:17.377Z,15.23
2023-02-12T22:41:45.412Z,13.85
2023-02-12T22:44:15.496Z,14.23
2023-02-12T22:46:44.089Z,15.05
2023-02-12T22:49:12.538Z,17.15
2023-02-12T22:51:41.594Z,17.42
2023-02-12T22:54:13.187Z,19.27
2023-02-12T22:56:41.094Z,22.75
2023-02-12T22:59:08.933Z,21.15
2023-02-12T23:01:39.583Z,21.30
2023-02-12T23:05:21.550Z,20.02
2023-02-12T23:09:28.650Z,19.48
2023-02-12T23:12:00.518Z,22.42
2023-02-12T23:14:28.135Z,21.17
2023-02-12T23:16:57.117Z,17.52
2023-02-12T23:19:25.051Z,19.73
2023-02-12T23:21:53.616Z,20.88
2023-02-12T23:24:23.515Z,17.63
2023-02-12T23:26:52.304Z,17.77
2023-02-12T23:30:09.832Z,19.25
2023-02-12T23:37:10.472Z,17.85
2023-02-12T23:41:17.758Z,17.23
2023-02-12T23:43:47.525Z,20.10
2023-02-12T23:46:15.191Z,18.40
2023-02-12T23:48:44.392Z,18.63
2023-02-12T23:51:12.652Z,19.23
2023-02-12T23:53:41.065Z,18.17
2023-02-12T23:56:08.797Z,18.65
2023-02-12T23:58:36.550Z,16.73
